createdAt,value
2019-02-16T00:02:10.973Z,6.20
2019-02-16T00:04:39.607Z,7.83
2019-02-16T00:07:08.308Z,6.75
2019-02-16T00:09:36.978Z,6.80
2019-02-16T00:12:05.532Z,7.20
2019-02-16T00:14:33.950Z,5.95
2019-02-16T00:17:02.455Z,6.85
2019-02-16T00:19:30.858Z,6.00
2019-02-16T00:21:59.289Z,6.20
2019-02-16T00:24:27.705Z,6.28
2019-02-16T00:26:56.196Z,6.72
2019-02-16T00:29:24.643Z,6.35
2019-02-16T00:31:53.058Z,6.65
2019-02-16T00:34:21.494Z,6.70
2019-02-16T00:36:49.919Z,6.28
2019-02-16T00:39:18.341Z,6.17
2019-02-16T00:41:46.758Z,6.85
2019-02-16T00:44:15.190Z,5.80
2019-02-16T00:46:43.611Z,6.20
2019-02-16T00:49:12.033Z,6.05
2019-02-16T00:51:40.450Z,5.55
2019-02-16T00:54:08.879Z,5.65
2019-02-16T00:56:37.312Z,6.12
2019-02-16T00:59:05.801Z,6.25
2019-02-16T01:01:34.219Z,5.90
2019-02-16T01:04:02.716Z,5.40
2019-02-16T01:06:31.358Z,6.50
2019-02-16T01:08:59.813Z,6.37
2019-02-16T01:11:28.234Z,6.05
2019-02-16T01:13:56.661Z,6.10
2019-02-16T01:16:25.352Z,6.90
2019-02-16T01:18:53.776Z,6.28
2019-02-16T01:21:23.000Z,6.55
2019-02-16T01:23:51.695Z,5.37
2019-02-16T01:26:20.117Z,6.20
2019-02-16T01:28:48.538Z,6.28
2019-02-16T01:31:16.955Z,6.00
2019-02-16T01:33:45.634Z,5.65
2019-02-16T01:36:14.386Z,6.47
2019-02-16T01:38:42.863Z,5.55
2019-02-16T01:41:11.265Z,5.60
2019-02-16T01:43:39.678Z,5.83
2019-02-16T01:46:08.102Z,5.65
2019-02-16T01:48:36.765Z,5.33
2019-02-16T01:51:05.413Z,7.10
2019-02-16T01:53:33.874Z,5.60
2019-02-16T01:56:02.300Z,5.60
2019-02-16T01:58:30.936Z,5.83
2019-02-16T02:00:59.399Z,5.10
2019-02-16T02:03:27.806Z,6.65
2019-02-16T02:05:56.238Z,5.37
2019-02-16T02:08:24.658Z,4.55
2019-02-16T02:10:53.113Z,4.70
2019-02-16T02:13:21.526Z,4.97
2019-02-16T02:15:50.031Z,4.00
2019-02-16T02:18:18.522Z,4.05
2019-02-16T02:20:46.947Z,3.58
2019-02-16T02:23:15.414Z,2.98
2019-02-16T02:25:43.898Z,3.70
2019-02-16T02:28:12.616Z,3.50
2019-02-16T02:30:41.366Z,4.10
2019-02-16T02:33:09.849Z,3.27
2019-02-16T02:35:38.327Z,3.92
2019-02-16T02:38:06.834Z,3.52
2019-02-16T02:40:35.336Z,3.08
2019-02-16T02:43:04.102Z,3.15
2019-02-16T02:45:32.612Z,3.00
2019-02-16T02:48:01.035Z,2.87
2019-02-16T02:50:29.500Z,3.15
2019-02-16T02:52:57.937Z,2.75
2019-02-16T02:55:26.466Z,1.92
2019-02-16T02:57:54.904Z,2.55
2019-02-16T03:00:23.543Z,3.00
2019-02-16T03:02:52.230Z,2.80
2019-02-16T03:05:20.703Z,2.67
2019-02-16T03:07:49.148Z,2.90
2019-02-16T03:10:17.597Z,2.27
2019-02-16T03:12:46.108Z,2.40
2019-02-16T03:15:14.552Z,3.47
2019-02-16T03:17:43.019Z,2.27
2019-02-16T03:20:11.469Z,2.75
2019-02-16T03:23:17.390Z,2.55
2019-02-16T03:26:01.423Z,2.20
2019-02-16T03:28:38.859Z,3.40
2019-02-16T03:31:27.036Z,2.83
2019-02-16T03:34:07.240Z,2.42
2019-02-16T03:36:41.459Z,2.70
2019-02-16T03:39:13.107Z,2.75
2019-02-16T03:41:41.781Z,2.80
2019-02-16T03:44:10.218Z,2.10
2019-02-16T03:46:38.693Z,3.22
2019-02-16T03:49:07.358Z,2.15
2019-02-16T03:51:35.782Z,2.87
2019-02-16T03:54:04.202Z,2.15
2019-02-16T03:56:32.891Z,2.10
2019-02-16T03:59:01.304Z,2.10
2019-02-16T04:01:29.721Z,2.10
2019-02-16T04:03:58.155Z,2.40
2019-02-16T04:06:26.907Z,2.62
2019-02-16T04:08:55.599Z,2.20
2019-02-16T04:11:24.285Z,2.30
2019-02-16T04:13:52.760Z,1.50
2019-02-16T04:16:21.180Z,2.20
2019-02-16T04:18:49.610Z,2.58
2019-02-16T04:21:18.022Z,2.83
2019-02-16T04:23:46.459Z,2.02
2019-02-16T04:26:15.094Z,1.90
2019-02-16T04:28:43.773Z,1.77
2019-02-16T04:31:12.233Z,2.10
2019-02-16T04:33:40.675Z,2.08
2019-02-16T04:36:09.096Z,1.45
2019-02-16T04:38:37.533Z,2.10
2019-02-16T04:41:05.956Z,2.25
2019-02-16T04:43:34.613Z,2.25
2019-02-16T04:46:03.073Z,2.10
2019-02-16T04:48:31.507Z,1.70
2019-02-16T04:51:00.165Z,1.60
2019-02-16T04:53:28.922Z,1.70
2019-02-16T04:55:57.400Z,2.00
2019-02-16T04:58:25.834Z,2.67
2019-02-16T05:00:54.248Z,1.57
2019-02-16T05:03:22.678Z,1.60
2019-02-16T05:05:51.090Z,1.60
2019-02-16T05:08:19.522Z,1.70
2019-02-16T05:10:47.925Z,1.92
2019-02-16T05:13:16.567Z,1.30
2019-02-16T05:15:45.022Z,1.92
2019-02-16T05:18:13.454Z,1.92
2019-02-16T05:20:42.124Z,1.70
2019-02-16T05:23:10.540Z,1.85
2019-02-16T05:25:39.167Z,2.00
2019-02-16T05:28:07.898Z,1.80
2019-02-16T05:30:36.306Z,1.80
2019-02-16T05:33:04.734Z,1.90
2019-02-16T05:35:33.396Z,2.37
2019-02-16T05:38:01.820Z,1.57
2019-02-16T05:40:30.250Z,1.95
2019-02-16T05:42:58.662Z,1.57
2019-02-16T05:45:27.085Z,1.80
2019-02-16T05:47:55.502Z,1.98
2019-02-16T05:50:24.133Z,1.90
2019-02-16T05:52:54.640Z,2.30
2019-02-16T05:55:23.007Z,2.35
2019-02-16T05:57:51.664Z,1.90
2019-02-16T06:00:21.978Z,2.72
2019-02-16T06:02:50.392Z,1.45
2019-02-16T06:05:18.821Z,1.85
2019-02-16T06:07:47.264Z,2.02
2019-02-16T06:10:15.743Z,2.10
2019-02-16T06:12:44.161Z,2.62
2019-02-16T06:15:12.595Z,2.00
2019-02-16T06:17:41.014Z,2.10
2019-02-16T06:20:09.746Z,2.40
2019-02-16T06:22:38.434Z,2.40
2019-02-16T06:25:06.863Z,2.08
2019-02-16T06:27:35.287Z,2.25
2019-02-16T06:30:04.283Z,2.10
2019-02-16T06:32:32.694Z,2.20
2019-02-16T06:35:20.919Z,2.15
2019-02-16T06:37:49.375Z,2.08
2019-02-16T06:40:17.803Z,2.12
2019-02-16T06:42:50.655Z,2.50
2019-02-16T06:45:19.088Z,2.60
2019-02-16T06:47:47.506Z,2.15
2019-02-16T06:50:15.937Z,2.30
2019-02-16T06:52:44.357Z,2.00
2019-02-16T06:55:12.790Z,1.70
2019-02-16T06:57:42.856Z,1.87
2019-02-16T07:00:12.359Z,2.10
2019-02-16T07:02:40.776Z,2.20
2019-02-16T07:05:09.215Z,1.90
2019-02-16T07:07:37.616Z,1.95
2019-02-16T07:10:08.850Z,2.47
2019-02-16T07:12:37.259Z,2.12
2019-02-16T07:15:06.821Z,2.58
2019-02-16T07:17:36.898Z,1.95
2019-02-16T07:20:07.900Z,2.70
2019-02-16T07:22:36.484Z,2.27
2019-02-16T07:25:06.339Z,2.90
2019-02-16T07:27:34.763Z,2.40
2019-02-16T07:30:03.615Z,3.37
2019-02-16T07:32:32.084Z,2.60
2019-02-16T07:35:00.510Z,2.30
2019-02-16T07:37:29.145Z,2.55
2019-02-16T07:39:57.598Z,2.87
2019-02-16T07:42:26.955Z,2.15
2019-02-16T07:44:57.018Z,2.45
2019-02-16T07:47:38.677Z,2.05
2019-02-16T07:50:08.982Z,2.08
2019-02-16T07:52:41.774Z,2.52
2019-02-16T07:55:15.027Z,2.50
2019-02-16T07:57:45.224Z,1.92
2019-02-16T08:00:17.022Z,1.52
2019-02-16T08:02:56.403Z,2.35
2019-02-16T08:05:38.855Z,2.60
2019-02-16T08:08:12.006Z,2.92
2019-02-16T08:10:42.066Z,1.90
2019-02-16T08:13:17.898Z,2.50
2019-02-16T08:15:47.956Z,2.25
2019-02-16T08:18:20.717Z,2.20
2019-02-16T08:20:53.726Z,1.80
2019-02-16T08:23:40.222Z,2.00
2019-02-16T08:26:23.051Z,2.30
2019-02-16T08:29:08.221Z,2.30
2019-02-16T08:31:38.299Z,2.37
2019-02-16T08:34:14.175Z,2.15
2019-02-16T08:36:44.254Z,2.08
2019-02-16T08:39:17.033Z,2.27
2019-02-16T08:41:47.383Z,2.20
2019-02-16T08:44:29.754Z,2.10
2019-02-16T08:46:59.883Z,2.33
2019-02-16T08:49:39.065Z,2.00
2019-02-16T08:52:09.143Z,1.97
2019-02-16T08:54:44.989Z,2.07
2019-02-16T08:57:15.301Z,1.53
2019-02-16T09:00:01.698Z,1.53
2019-02-16T09:02:31.770Z,1.80
2019-02-16T09:05:01.841Z,2.00
2019-02-16T09:07:31.919Z,1.70
2019-02-16T09:10:07.758Z,1.77
2019-02-16T09:12:43.807Z,2.17
2019-02-16T09:15:26.324Z,1.93
2019-02-16T09:17:56.430Z,1.53
2019-02-16T09:20:42.417Z,1.63
2019-02-16T09:23:21.630Z,1.40
2019-02-16T09:25:54.762Z,1.20
2019-02-16T09:28:41.430Z,2.10
2019-02-16T09:31:20.838Z,1.10
2019-02-16T09:34:07.463Z,1.33
2019-02-16T09:36:37.550Z,1.50
2019-02-16T09:39:19.558Z,1.10
2019-02-16T09:42:04.623Z,1.30
2019-02-16T09:44:37.605Z,1.90
2019-02-16T09:47:07.806Z,1.40
2019-02-16T09:49:40.300Z,1.10
2019-02-16T09:52:22.404Z,1.40
2019-02-16T09:54:52.515Z,1.30
2019-02-16T09:57:34.691Z,1.40
2019-02-16T10:00:10.368Z,1.10
2019-02-16T10:02:49.543Z,1.37
2019-02-16T10:05:34.627Z,1.00
2019-02-16T10:08:07.283Z,0.83
2019-02-16T10:10:43.113Z,0.90
2019-02-16T10:13:19.392Z,1.27
2019-02-16T10:15:49.543Z,1.00
2019-02-16T10:18:19.613Z,0.90
2019-02-16T10:21:06.265Z,1.00
2019-02-16T10:23:42.712Z,1.20
2019-02-16T10:26:12.778Z,1.30
2019-02-16T10:28:54.752Z,1.30
2019-02-16T10:31:30.757Z,0.90
2019-02-16T10:34:09.858Z,1.20
2019-02-16T10:36:55.182Z,1.00
2019-02-16T10:39:25.343Z,1.40
2019-02-16T10:41:58.399Z,1.40
2019-02-16T10:44:31.442Z,1.10
2019-02-16T10:47:01.499Z,1.33
2019-02-16T10:49:31.560Z,1.10
2019-02-16T10:52:29.290Z,0.70
2019-02-16T10:55:05.044Z,1.00
2019-02-16T10:57:44.251Z,0.80
2019-02-16T11:00:26.290Z,1.17
2019-02-16T11:02:59.175Z,0.90
2019-02-16T11:05:44.482Z,0.90
2019-02-16T11:08:17.254Z,1.17
2019-02-16T11:10:47.327Z,0.77
2019-02-16T11:13:20.411Z,1.10
2019-02-16T11:15:50.475Z,1.03
2019-02-16T11:18:26.474Z,1.00
2019-02-16T11:20:59.288Z,1.23
2019-02-16T11:23:32.488Z,0.93
2019-02-16T11:26:11.546Z,0.90
2019-02-16T11:28:50.773Z,0.80
2019-02-16T11:31:29.373Z,0.90
2019-02-16T11:34:15.814Z,0.50
2019-02-16T11:36:52.111Z,0.77
2019-02-16T11:39:25.151Z,0.70
2019-02-16T11:41:55.478Z,1.00
2019-02-16T11:44:31.280Z,0.60
2019-02-16T11:47:01.343Z,0.70
2019-02-16T11:49:50.957Z,1.00
2019-02-16T11:52:24.295Z,0.50
2019-02-16T11:55:09.522Z,0.57
2019-02-16T11:57:39.594Z,0.60
2019-02-16T12:00:28.456Z,0.60
2019-02-16T12:03:01.330Z,0.60
2019-02-16T12:05:31.402Z,0.70
2019-02-16T12:08:01.528Z,0.70
2019-02-16T12:10:31.852Z,0.70
2019-02-16T12:13:13.182Z,1.00
2019-02-16T12:15:55.404Z,0.50
2019-02-16T12:18:37.408Z,0.73
2019-02-16T12:21:16.186Z,0.60
2019-02-16T12:23:48.967Z,0.60
2019-02-16T12:26:35.106Z,0.60
2019-02-16T12:29:08.453Z,0.80
2019-02-16T12:31:50.786Z,0.77
2019-02-16T12:34:35.847Z,0.60
2019-02-16T12:37:08.853Z,0.50
2019-02-16T12:39:51.046Z,0.90
2019-02-16T12:42:32.706Z,0.80
2019-02-16T12:45:17.763Z,0.60
2019-02-16T12:48:00.116Z,0.60
2019-02-16T12:50:32.605Z,0.70
2019-02-16T12:53:11.529Z,0.60
2019-02-16T12:55:41.622Z,0.60
2019-02-16T12:58:14.843Z,0.60
2019-02-16T13:00:51.615Z,0.70
2019-02-16T13:03:24.375Z,0.63
2019-02-16T13:05:54.675Z,0.63
2019-02-16T13:08:36.979Z,0.80
2019-02-16T13:11:07.070Z,0.87
2019-02-16T13:13:46.378Z,0.70
2019-02-16T13:16:18.875Z,0.90
2019-02-16T13:19:07.223Z,0.83
2019-02-16T13:21:40.425Z,0.50
2019-02-16T13:24:13.486Z,0.70
2019-02-16T13:26:46.239Z,0.57
2019-02-16T13:29:34.498Z,0.70
2019-02-16T13:32:04.546Z,0.70
2019-02-16T13:34:40.573Z,0.80
2019-02-16T13:37:16.298Z,0.70
2019-02-16T13:39:52.315Z,0.70
2019-02-16T13:42:25.061Z,0.70
2019-02-16T13:44:55.172Z,0.70
2019-02-16T13:47:25.463Z,0.73
2019-02-16T13:49:55.522Z,0.60
2019-02-16T13:52:34.729Z,0.60
2019-02-16T13:55:07.890Z,0.63
2019-02-16T13:57:47.043Z,0.60
2019-02-16T14:00:19.851Z,0.70
2019-02-16T14:02:49.890Z,0.70
2019-02-16T14:05:28.577Z,0.80
2019-02-16T14:08:06.038Z,0.63
2019-02-16T14:10:39.230Z,0.70
2019-02-16T14:13:14.967Z,0.80
2019-02-16T14:15:45.031Z,0.70
2019-02-16T14:18:13.448Z,0.60
2019-02-16T14:20:42.106Z,0.67
2019-02-16T14:23:10.798Z,1.70
2019-02-16T14:25:44.854Z,0.90
2019-02-16T14:28:11.317Z,0.80
2019-02-16T14:30:40.031Z,0.50
2019-02-16T14:33:08.727Z,0.60
2019-02-16T14:35:37.357Z,0.60
2019-02-16T14:38:10.161Z,0.80
2019-02-16T14:40:38.588Z,0.97
2019-02-16T14:43:07.007Z,0.70
2019-02-16T14:45:37.067Z,0.80
2019-02-16T14:48:05.706Z,0.63
2019-02-16T14:50:34.183Z,0.70
2019-02-16T14:53:02.597Z,0.60
2019-02-16T14:55:31.045Z,0.60
2019-02-16T14:57:59.461Z,0.80
2019-02-16T15:00:27.890Z,0.60
2019-02-16T15:02:56.559Z,0.70
2019-02-16T15:05:24.977Z,0.50
2019-02-16T15:07:53.408Z,0.70
2019-02-16T15:10:21.819Z,0.60
2019-02-16T15:12:50.251Z,0.83
2019-02-16T15:15:18.959Z,0.70
2019-02-16T15:17:47.434Z,1.00
2019-02-16T15:20:16.883Z,0.70
2019-02-16T15:22:45.311Z,1.47
2019-02-16T15:25:13.731Z,0.70
2019-02-16T15:27:42.159Z,0.80
2019-02-16T15:30:18.836Z,0.60
2019-02-16T15:32:47.519Z,0.77
2019-02-16T15:35:15.938Z,0.57
2019-02-16T15:37:44.371Z,0.63
2019-02-16T15:40:12.938Z,1.20
2019-02-16T15:42:41.708Z,0.70
2019-02-16T15:45:15.096Z,1.07
2019-02-16T15:47:43.619Z,1.07
2019-02-16T15:50:14.195Z,0.50
2019-02-16T15:52:43.789Z,0.80
2019-02-16T15:55:12.707Z,0.90
2019-02-16T15:57:41.218Z,0.80
2019-02-16T16:00:19.836Z,0.77
2019-02-16T16:02:48.452Z,1.00
2019-02-16T16:05:17.056Z,0.70
2019-02-16T16:07:47.201Z,0.50
2019-02-16T16:10:17.292Z,0.90
2019-02-16T16:12:56.639Z,0.70
2019-02-16T16:15:44.713Z,0.80
2019-02-16T16:18:31.308Z,0.90
2019-02-16T16:21:16.366Z,0.90
2019-02-16T16:23:52.214Z,0.90
2019-02-16T16:26:38.467Z,0.90
2019-02-16T16:29:20.333Z,0.90
2019-02-16T16:31:53.171Z,0.80
2019-02-16T16:34:39.627Z,0.60
2019-02-16T16:37:09.702Z,1.10
2019-02-16T16:39:39.750Z,1.10
2019-02-16T16:42:10.076Z,0.90
2019-02-16T16:44:45.979Z,0.83
2019-02-16T16:47:25.040Z,0.90
2019-02-16T16:50:18.496Z,1.10
2019-02-16T16:52:46.147Z,1.07
2019-02-16T16:55:34.308Z,1.20
2019-02-16T16:58:23.058Z,1.40
2019-02-16T17:00:56.092Z,1.43
2019-02-16T17:03:26.250Z,0.93
2019-02-16T17:06:08.094Z,1.70
2019-02-16T17:08:40.863Z,1.10
2019-02-16T17:11:19.887Z,1.73
2019-02-16T17:13:49.971Z,2.47
2019-02-16T17:16:22.964Z,2.93
2019-02-16T17:18:55.804Z,2.47
2019-02-16T17:21:34.652Z,2.60
2019-02-16T17:24:04.781Z,2.90
2019-02-16T17:26:37.715Z,3.10
2019-02-16T17:29:06.654Z,4.27
2019-02-16T17:31:39.742Z,4.40
2019-02-16T17:34:12.650Z,4.07
2019-02-16T17:36:48.498Z,4.73
2019-02-16T17:39:24.639Z,4.57
2019-02-16T17:41:57.911Z,4.93
2019-02-16T17:44:28.089Z,5.57
2019-02-16T17:46:58.158Z,5.80
2019-02-16T17:49:44.294Z,6.07
2019-02-16T17:52:26.599Z,5.87
2019-02-16T17:54:56.696Z,5.20
2019-02-16T17:57:29.512Z,4.60
2019-02-16T17:59:59.603Z,5.72
2019-02-16T18:02:38.686Z,5.47
2019-02-16T18:05:24.218Z,5.90
2019-02-16T18:07:56.987Z,4.70
2019-02-16T18:10:27.061Z,9.27
2019-02-16T18:13:08.924Z,8.90
2019-02-16T18:15:39.277Z,9.00
2019-02-16T18:18:14.880Z,10.03
2019-02-16T18:20:50.949Z,9.50
2019-02-16T18:23:21.023Z,7.47
2019-02-16T18:25:57.261Z,8.73
2019-02-16T18:28:30.175Z,7.35
2019-02-16T18:31:15.759Z,7.28
2019-02-16T18:34:00.586Z,6.77
2019-02-16T18:36:36.570Z,7.30
2019-02-16T18:39:10.897Z,7.50
2019-02-16T18:41:44.134Z,6.50
2019-02-16T18:44:20.208Z,5.37
2019-02-16T18:46:50.313Z,4.55
2019-02-16T18:49:36.563Z,5.83
2019-02-16T18:52:06.670Z,5.65
2019-02-16T18:54:39.715Z,3.25
2019-02-16T18:57:15.512Z,4.62
2019-02-16T18:59:45.575Z,2.65
2019-02-16T19:02:32.117Z,3.50
2019-02-16T19:05:02.204Z,3.40
2019-02-16T19:07:35.358Z,3.35
2019-02-16T19:10:06.185Z,3.30
2019-02-16T19:12:51.542Z,2.90
2019-02-16T19:15:24.381Z,2.60
2019-02-16T19:17:54.500Z,2.70
2019-02-16T19:20:30.559Z,3.30
2019-02-16T19:23:12.845Z,4.12
2019-02-16T19:25:54.808Z,3.25
2019-02-16T19:28:33.573Z,3.42
2019-02-16T19:31:06.556Z,2.95
2019-02-16T19:33:39.163Z,3.40
2019-02-16T19:36:12.263Z,2.60
2019-02-16T19:38:51.505Z,3.70
2019-02-16T19:41:27.575Z,3.30
2019-02-16T19:44:12.589Z,3.67
2019-02-16T19:46:51.761Z,3.90
2019-02-16T19:49:38.059Z,3.90
2019-02-16T19:52:14.122Z,4.45
2019-02-16T19:54:47.086Z,4.08
2019-02-16T19:57:32.492Z,3.50
2019-02-16T20:00:18.673Z,4.65
2019-02-16T20:02:54.246Z,3.60
2019-02-16T20:05:40.832Z,3.37
2019-02-16T20:08:20.167Z,3.75
2019-02-16T20:11:08.318Z,3.60
2019-02-16T20:13:38.399Z,3.83
2019-02-16T20:16:08.782Z,4.05
2019-02-16T20:18:50.706Z,3.85
2019-02-16T20:21:37.355Z,2.92
2019-02-16T20:24:13.249Z,3.87
2019-02-16T20:26:46.538Z,4.05
2019-02-16T20:29:22.497Z,4.62
2019-02-16T20:31:52.566Z,9.83
2019-02-16T20:34:25.601Z,6.78
2019-02-16T20:36:58.638Z,6.30
2019-02-16T20:39:28.990Z,6.78
2019-02-16T20:41:59.416Z,5.03
2019-02-16T20:44:38.211Z,4.70
2019-02-16T20:47:14.074Z,5.00
2019-02-16T20:49:47.155Z,4.30
2019-02-16T20:52:17.276Z,4.65
2019-02-16T20:54:56.391Z,4.33
2019-02-16T20:57:47.641Z,4.03
2019-02-16T21:00:17.988Z,3.83
2019-02-16T21:02:50.767Z,4.33
2019-02-16T21:05:38.883Z,5.03
2019-02-16T21:08:17.602Z,4.33
2019-02-16T21:10:59.806Z,4.70
2019-02-16T21:13:41.838Z,4.80
2019-02-16T21:16:12.174Z,4.53
2019-02-16T21:18:44.968Z,3.45
2019-02-16T21:21:17.854Z,4.78
2019-02-16T21:23:53.986Z,4.67
2019-02-16T21:26:24.300Z,3.75
2019-02-16T21:28:54.357Z,3.95
2019-02-16T21:31:24.430Z,4.80
2019-02-16T21:33:54.494Z,4.50
2019-02-16T21:36:24.559Z,3.75
2019-02-16T21:39:11.273Z,4.60
2019-02-16T21:41:41.320Z,4.42
2019-02-16T21:44:14.326Z,4.35
2019-02-16T21:46:53.504Z,5.05
2019-02-16T21:49:39.838Z,4.97
2019-02-16T21:52:22.023Z,3.87
2019-02-16T21:55:00.765Z,4.20
2019-02-16T21:57:33.546Z,3.33
2019-02-16T22:00:09.363Z,3.62
2019-02-16T22:02:39.417Z,4.40
2019-02-16T22:05:27.691Z,3.60
2019-02-16T22:08:09.713Z,3.33
2019-02-16T22:10:45.567Z,3.33
2019-02-16T22:13:13.996Z,4.33
2019-02-16T22:15:42.439Z,3.10
2019-02-16T22:18:10.872Z,2.62
2019-02-16T22:20:39.307Z,2.77
2019-02-16T22:23:07.731Z,2.47
2019-02-16T22:25:36.167Z,2.00
2019-02-16T22:28:04.645Z,1.95
2019-02-16T22:30:33.146Z,2.40
2019-02-16T22:33:01.641Z,2.40
2019-02-16T22:35:30.081Z,1.50
2019-02-16T22:37:58.493Z,1.60
2019-02-16T22:40:27.045Z,1.32
2019-02-16T22:42:55.717Z,1.40
2019-02-16T22:45:24.147Z,1.35
2019-02-16T22:47:52.578Z,1.17
2019-02-16T22:50:20.999Z,1.20
2019-02-16T22:52:49.443Z,0.98
2019-02-16T22:55:17.857Z,1.00
2019-02-16T22:57:46.288Z,0.93
2019-02-16T23:00:19.126Z,1.07
2019-02-16T23:02:47.870Z,1.32
2019-02-16T23:05:16.333Z,1.00
2019-02-16T23:07:44.766Z,1.35
2019-02-16T23:10:13.273Z,1.27
2019-02-16T23:12:41.732Z,1.47
2019-02-16T23:15:11.967Z,1.00
2019-02-16T23:17:40.434Z,1.40
2019-02-16T23:20:11.018Z,0.90
2019-02-16T23:22:39.456Z,0.88
2019-02-16T23:25:09.087Z,1.10
2019-02-16T23:27:37.589Z,0.70
2019-02-16T23:30:09.214Z,0.60
2019-02-16T23:32:37.873Z,1.30
2019-02-16T23:35:08.129Z,0.88
2019-02-16T23:37:36.766Z,0.95
2019-02-16T23:40:07.400Z,0.80
2019-02-16T23:42:36.103Z,0.93
2019-02-16T23:45:07.071Z,0.70
2019-02-16T23:47:35.543Z,0.80
2019-02-16T23:50:05.576Z,1.20
2019-02-16T23:52:34.003Z,1.50
2019-02-16T23:55:02.434Z,1.70
2019-02-16T23:57:30.887Z,1.02
2019-02-16T23:59:59.550Z,1.50
